1106 UTC 30 July 2014 found at http://aviationweather.gov/adds/metars/
 
METAR text: KAFF 301103Z AUTO 33008KT 10SM BKN015 BKN023 14/14 A3029 RMK AO2 CIG 015V023
Conditions at: KAFF (USAF ACADEMY/COS, CO, US) observed 1103 UTC 30 July 2014
Temperature: 14.0°C (57°F)
Dewpoint: 14.0°C (57°F) [RH = 100%]
Pressure (altimeter): 30.29 inches Hg (1025.8 mb)
Winds: from the NNW (330 degrees) at 9 MPH (8 knots; 4.2 m/s)
Visibility: 10 or more miles (16+ km)
Ceiling: 1500 feet AGL
Clouds: broken clouds at 1500 feet AGL
broken clouds at 2300 feet AGL
Weather: automated observation with no human augmentation;
there may or may not be significant weather present at this time

METAR text: KAFF 301058Z AUTO 32007KT 10SM SCT014 BKN023 14/14 A3029 RMK AO2 DZE1023 SLP183 P0000 T01400138
Conditions at: KAFF (USAF ACADEMY/COS, CO, US) observed 1058 UTC 30 July 2014
Temperature: 14.0°C (57°F)
Dewpoint: 13.8°C (57°F) [RH = 99%]
Pressure (altimeter): 30.29 inches Hg (1025.8 mb[Sea-level pressure: 1018.3 mb]
Winds: from the NW (320 degrees) at 8 MPH (7 knots; 3.6 m/s)
Visibility: 10 or more miles (16+ km)
Ceiling: 2300 feet AGL
Clouds: scattered clouds at 1400 feet AGL
broken clouds at 2300 feet AGL
Weather: automated observation with no human augmentation;
there may or may not be significant weather present at this time

METAR text: KAFF 301028Z AUTO 34004KT 10SM BKN021 14/14 A3029 RMK AO2 DZE1023 CIG 015V021
Conditions at: KAFF (USAF ACADEMY/COS, CO, US) observed 1028 UTC 30 July 2014
Temperature: 14.0°C (57°F)
Dewpoint: 14.0°C (57°F) [RH = 100%]
Pressure (altimeter): 30.29 inches Hg (1025.8 mb)
Winds: from the NNW (340 degrees) at 5 MPH (4 knots; 2.1 m/s)
Visibility: 10 or more miles (16+ km)
Ceiling: 2100 feet AGL
Clouds: broken clouds at 2100 feet AGL
Weather: automated observation with no human augmentation;
there may or may not be significant weather present at this time

METAR text: KAFF 301023Z AUTO 35006KT 9SM BKN019 OVC025 14/14 A3029 RMK AO2 CIG 015V026
Conditions at: KAFF (USAF ACADEMY/COS, CO, US) observed 1023 UTC 30 July 2014
Temperature: 14.0°C (57°F)
Dewpoint: 14.0°C (57°F) [RH = 100%]
Pressure (altimeter): 30.29 inches Hg (1025.8 mb)
Winds: from the N (350 degrees) at 7 MPH (6 knots; 3.1 m/s)
Visibility: 9 miles (14 km)
Ceiling: 1900 feet AGL
Clouds: broken clouds at 1900 feet AGL
overcast cloud deck at 2500 feet AGL
Weather: automated observation with no human augmentation;
there may or may not be significant weather present at this time

METAR text: KAFF 301021Z AUTO 35006KT 9SM -DZ BKN017 OVC025 14/14 A3029 RMK AO2 CIG 015V026
Conditions at: KAFF (USAF ACADEMY/COS, CO, US) observed 1021 UTC 30 July 2014
Temperature: 14.0°C (57°F)
Dewpoint: 14.0°C (57°F) [RH = 100%]
Pressure (altimeter): 30.29 inches Hg (1025.8 mb)
Winds: from the N (350 degrees) at 7 MPH (6 knots; 3.1 m/s)
Visibility: 9 miles (14 km)
Ceiling: 1700 feet AGL
Clouds: broken clouds at 1700 feet AGL
overcast cloud deck at 2500 feet AGL
Weather: -DZ  (light drizzle)

METAR text: KAFF 301011Z AUTO 33005KT 10SM -DZ FEW015 BKN026 14/14 A3029 RMK AO2
Conditions at: KAFF (USAF ACADEMY/COS, CO, US) observed 1011 UTC 30 July 2014
Temperature: 14.0°C (57°F)
Dewpoint: 14.0°C (57°F) [RH = 100%]
Pressure (altimeter): 30.29 inches Hg (1025.8 mb)
Winds: from the NNW (330 degrees) at 6 MPH (5 knots; 2.6 m/s)
Visibility: 10 or more miles (16+ km)
Ceiling: 2600 feet AGL
Clouds: few clouds at 1500 feet AGL
broken clouds at 2600 feet AGL
Weather: -DZ  (light drizzle)

METAR text: KAFF 301002Z AUTO 34007KT 10SM FEW004 OVC027 14/14 A3029 RMK AO2
Conditions at: KAFF (USAF ACADEMY/COS, CO, US) observed 1002 UTC 30 July 2014
Temperature: 14.0°C (57°F)
Dewpoint: 14.0°C (57°F) [RH = 100%]
Pressure (altimeter): 30.29 inches Hg (1025.8 mb)
Winds: from the NNW (340 degrees) at 8 MPH (7 knots; 3.6 m/s)
Visibility: 10 or more miles (16+ km)
Ceiling: 2700 feet AGL
Clouds: few clouds at 400 feet AGL
overcast cloud deck at 2700 feet AGL
Weather: automated observation with no human augmentation;
there may or may not be significant weather present at this time

METAR text: KAFF 300958Z AUTO 34007KT 10SM -DZ FEW004 OVC028 14/14 A3029 RMK AO2 RAE0858B0951E0952DZB0858E0906B0952 OVC V BKN SLP188 P0000 T01420140
Conditions at: KAFF (USAF ACADEMY/COS, CO, US) observed 0958 UTC 30 July 2014
Temperature: 14.2°C (58°F)
Dewpoint: 14.0°C (57°F) [RH = 99%]
Pressure (altimeter): 30.29 inches Hg (1025.8 mb[Sea-level pressure: 1018.8 mb]
Winds: from the NNW (340 degrees) at 8 MPH (7 knots; 3.6 m/s)
Visibility: 10 or more miles (16+ km)
Ceiling: 2800 feet AGL
Clouds: few clouds at 400 feet AGL
overcast cloud deck at 2800 feet AGL
Weather: -DZ  (light drizzle)

METAR text: KAFF 300951Z AUTO 34007KT 10SM -RA BKN028 14/14 A3029 RMK AO2
Conditions at: KAFF (USAF ACADEMY/COS, CO, US) observed 0951 UTC 30 July 2014
Temperature: 14.0°C (57°F)
Dewpoint: 14.0°C (57°F) [RH = 100%]
Pressure (altimeter): 30.29 inches Hg (1025.8 mb)
Winds: from the NNW (340 degrees) at 8 MPH (7 knots; 3.6 m/s)
Visibility: 10 or more miles (16+ km)
Ceiling: 2800 feet AGL
Clouds: broken clouds at 2800 feet AGL
Weather: -RA  (light rain)

METAR text: KAFF 300931Z AUTO 35005KT 10SM BKN029 OVC035 14/14 A3029 RMK AO2
Conditions at: KAFF (USAF ACADEMY/COS, CO, US) observed 0931 UTC 30 July 2014
Temperature: 14.0°C (57°F)
Dewpoint: 14.0°C (57°F) [RH = 100%]
Pressure (altimeter): 30.29 inches Hg (1025.8 mb)
Winds: from the N (350 degrees) at 6 MPH (5 knots; 2.6 m/s)
Visibility: 10 or more miles (16+ km)
Ceiling: 2900 feet AGL
Clouds: broken clouds at 2900 feet AGL
overcast cloud deck at 3500 feet AGL
Weather: automated observation with no human augmentation;
there may or may not be significant weather present at this time

METAR text: KAFF 300916Z AUTO 34004KT 10SM FEW014 SCT028 BKN035 14/14 A3028 RMK AO2 RAE0858DZB0858E0906
Conditions at: KAFF (USAF ACADEMY/COS, CO, US) observed 0916 UTC 30 July 2014
Temperature: 14.0°C (57°F)
Dewpoint: 14.0°C (57°F) [RH = 100%]
Pressure (altimeter): 30.28 inches Hg (1025.5 mb)
Winds: from the NNW (340 degrees) at 5 MPH (4 knots; 2.1 m/s)
Visibility: 10 or more miles (16+ km)
Ceiling: 3500 feet AGL
Clouds: few clouds at 1400 feet AGL
scattered clouds at 2800 feet AGL
broken clouds at 3500 feet AGL
Weather: automated observation with no human augmentation;
there may or may not be significant weather present at this time

METAR text: KAFF 300906Z AUTO 34005KT 10SM SCT015 BKN028 BKN039 14/14 A3029 RMK AO2 RAE0858DZB0858 CIG 018V039
Conditions at: KAFF (USAF ACADEMY/COS, CO, US) observed 0906 UTC 30 July 2014
Temperature: 14.0°C (57°F)
Dewpoint: 14.0°C (57°F) [RH = 100%]
Pressure (altimeter): 30.29 inches Hg (1025.8 mb)
Winds: from the NNW (340 degrees) at 6 MPH (5 knots; 2.6 m/s)
Visibility: 10 or more miles (16+ km)
Ceiling: 2800 feet AGL
Clouds: scattered clouds at 1500 feet AGL
broken clouds at 2800 feet AGL
broken clouds at 3900 feet AGL
Weather: automated observation with no human augmentation;
there may or may not be significant weather present at this time

METAR text: KAFF 300903Z AUTO 34005KT 10SM -DZ SCT016 SCT030 BKN039 14/14 A3028 RMK AO2 RAE0858DZB0858
Conditions at: KAFF (USAF ACADEMY/COS, CO, US) observed 0903 UTC 30 July 2014
Temperature: 14.0°C (57°F)
Dewpoint: 14.0°C (57°F) [RH = 100%]
Pressure (altimeter): 30.28 inches Hg (1025.5 mb)
Winds: from the NNW (340 degrees) at 6 MPH (5 knots; 2.6 m/s)
Visibility: 10 or more miles (16+ km)
Ceiling: 3900 feet AGL
Clouds: scattered clouds at 1600 feet AGL
scattered clouds at 3000 feet AGL
broken clouds at 3900 feet AGL
Weather: -DZ  (light drizzle)

METAR text: KAFF 300858Z AUTO 33005KT 10SM -DZ BKN018 BKN039 15/14 A3028 RMK AO2 SLP164 P0001 60001 55002
Conditions at: KAFF (USAF ACADEMY/COS, CO, US) observed 0858 UTC 30 July 2014
Temperature: 15.0°C (59°F)
Dewpoint: 14.0°C (57°F) [RH = 94%]
Pressure (altimeter): 30.28 inches Hg (1025.5 mb[Sea-level pressure: 1016.4 mb]
Winds: from the NNW (330 degrees) at 6 MPH (5 knots; 2.6 m/s)
Visibility: 10 or more miles (16+ km)
Ceiling: 1800 feet AGL
Clouds: broken clouds at 1800 feet AGL
broken clouds at 3900 feet AGL
Weather: -DZ  (light drizzle)

METAR text: KAFF 300855Z AUTO 34004KT 10SM -RA BKN020 BKN040 14/14 A3028 RMK AO2 RAB0832DZB0830E0832
Conditions at: KAFF (USAF ACADEMY/COS, CO, US) observed 0855 UTC 30 July 2014
Temperature: 14.0°C (57°F)
Dewpoint: 14.0°C (57°F) [RH = 100%]
Pressure (altimeter): 30.28 inches Hg (1025.5 mb)
Winds: from the NNW (340 degrees) at 5 MPH (4 knots; 2.1 m/s)
Visibility: 10 or more miles (16+ km)
Ceiling: 2000 feet AGL
Clouds: broken clouds at 2000 feet AGL
broken clouds at 4000 feet AGL
Weather: -RA  (light rain)

METAR text: KAFF 300850Z AUTO 34004KT 10SM -RA BKN018 15/14 A3028 RMK AO2 RAB0832DZB0830E0832 CIG 018V023
Conditions at: KAFF (USAF ACADEMY/COS, CO, US) observed 0850 UTC 30 July 2014
Temperature: 15.0°C (59°F)
Dewpoint: 14.0°C (57°F) [RH = 94%]
Pressure (altimeter): 30.28 inches Hg (1025.5 mb)
Winds: from the NNW (340 degrees) at 5 MPH (4 knots; 2.1 m/s)
Visibility: 10 or more miles (16+ km)
Ceiling: 1800 feet AGL
Clouds: broken clouds at 1800 feet AGL
Weather: -RA  (light rain)

METAR text: KAFF 300845Z AUTO 36005KT 9SM -RA BKN018 15/14 A3029 RMK AO2 RAB0832DZB0830E0832 CIG 018V046
Conditions at: KAFF (USAF ACADEMY/COS, CO, US) observed 0845 UTC 30 July 2014
Temperature: 15.0°C (59°F)
Dewpoint: 14.0°C (57°F) [RH = 94%]
Pressure (altimeter): 30.29 inches Hg (1025.8 mb)
Winds: from the N (360 degrees) at 6 MPH (5 knots; 2.6 m/s)
Visibility: 9 miles (14 km)
Ceiling: 1800 feet AGL
Clouds: broken clouds at 1800 feet AGL
Weather: -RA  (light rain)

METAR text: KAFF 300840Z AUTO 36005KT 8SM -RA BKN023 BKN045 15/14 A3029 RMK AO2 RAB0832DZB0830E0832 CIG 023V046 BKN023 V FEW
Conditions at: KAFF (USAF ACADEMY/COS, CO, US) observed 0840 UTC 30 July 2014
Temperature: 15.0°C (59°F)
Dewpoint: 14.0°C (57°F) [RH = 94%]
Pressure (altimeter): 30.29 inches Hg (1025.8 mb)
Winds: from the N (360 degrees) at 6 MPH (5 knots; 2.6 m/s)
Visibility: 8 miles (13 km)
Ceiling: 2300 feet AGL
Clouds: broken clouds at 2300 feet AGL
broken clouds at 4500 feet AGL
Weather: -RA  (light rain)

METAR text: KAFF 300830Z AUTO 01004KT 10SM -DZ FEW023 SCT044 14/14 A3029 RMK AO2
Conditions at: KAFF (USAF ACADEMY/COS, CO, US) observed 0830 UTC 30 July 2014
Temperature: 14.0°C (57°F)
Dewpoint: 14.0°C (57°F) [RH = 100%]
Pressure (altimeter): 30.29 inches Hg (1025.8 mb)
Winds: from the N (10 degrees) at 5 MPH (4 knots; 2.1 m/s)
Visibility: 10 or more miles (16+ km)
Ceiling: at least 12,000 feet AGL
Clouds: few clouds at 2300 feet AGL
scattered clouds at 4400 feet AGL
Weather: -DZ  (light drizzle)

METAR text: KAFF 300758Z AUTO 36005KT 10SM BKN043 14/14 A3030 RMK AO2 SLP176 T01440143
Conditions at: KAFF (USAF ACADEMY/COS, CO, US) observed 0758 UTC 30 July 2014
Temperature: 14.4°C (58°F)
Dewpoint: 14.3°C (58°F) [RH = 99%]
Pressure (altimeter): 30.30 inches Hg (1026.2 mb[Sea-level pressure: 1017.6 mb]
Winds: from the N (360 degrees) at 6 MPH (5 knots; 2.6 m/s)
Visibility: 10 or more miles (16+ km)
Ceiling: 4300 feet AGL
Clouds: broken clouds at 4300 feet AGL
Weather: automated observation with no human augmentation;
there may or may not be significant weather present at this time

METAR text: KAFF 300658Z AUTO 02009KT 10SM SCT038 14/14 A3029 RMK AO2 DZE0604 SLP173 P0000 T01440142 402460108
Conditions at: KAFF (USAF ACADEMY/COS, CO, US) observed 0658 UTC 30 July 2014
Temperature: 14.4°C (58°F)
Dewpoint: 14.2°C (58°F) [RH = 99%]
Pressure (altimeter): 30.29 inches Hg (1025.8 mb[Sea-level pressure: 1017.3 mb]
Winds: from the NNE (20 degrees) at 10 MPH (9 knots; 4.7 m/s)
Visibility: 10 or more miles (16+ km)
Ceiling: at least 12,000 feet AGL
Clouds: scattered clouds at 3800 feet AGL
Weather: automated observation with no human augmentation;
there may or may not be significant weather present at this time

METAR text: KAFF 300624Z AUTO 35007KT 10SM SCT018 SCT024 BKN030 14/14 A3029 RMK AO2 DZE0604
Conditions at: KAFF (USAF ACADEMY/COS, CO, US) observed 0624 UTC 30 July 2014
Temperature: 14.0°C (57°F)
Dewpoint: 14.0°C (57°F) [RH = 100%]
Pressure (altimeter): 30.29 inches Hg (1025.8 mb)
Winds: from the N (350 degrees) at 8 MPH (7 knots; 3.6 m/s)
Visibility: 10 or more miles (16+ km)
Ceiling: 3000 feet AGL
Clouds: scattered clouds at 1800 feet AGL
scattered clouds at 2400 feet AGL
broken clouds at 3000 feet AGL
Weather: automated observation with no human augmentation;
there may or may not be significant weather present at this time

METAR text: KAFF 300619Z AUTO 34007KT 10SM FEW009 SCT018 BKN026 OVC031 14/14 A3029 RMK AO2 DZE0604 CIG 015V026
Conditions at: KAFF (USAF ACADEMY/COS, CO, US) observed 0619 UTC 30 July 2014
Temperature: 14.0°C (57°F)
Dewpoint: 14.0°C (57°F) [RH = 100%]
Pressure (altimeter): 30.29 inches Hg (1025.8 mb)
Winds: from the NNW (340 degrees) at 8 MPH (7 knots; 3.6 m/s)
Visibility: 10 or more miles (16+ km)
Ceiling: 2600 feet AGL
Clouds: few clouds at 900 feet AGL
scattered clouds at 1800 feet AGL
broken clouds at 2600 feet AGL
overcast cloud deck at 3100 feet AGL
Weather: automated observation with no human augmentation;
there may or may not be significant weather present at this time

METAR text: KAFF 300609Z AUTO 36005KT 10SM FEW005 SCT012 BKN016 OVC023 14/14 A3029 RMK AO2 DZE0604 CIG 010V016 BKN V OVC
Conditions at: KAFF (USAF ACADEMY/COS, CO, US) observed 0609 UTC 30 July 2014
Temperature: 14.0°C (57°F)
Dewpoint: 14.0°C (57°F) [RH = 100%]
Pressure (altimeter): 30.29 inches Hg (1025.8 mb)
Winds: from the N (360 degrees) at 6 MPH (5 knots; 2.6 m/s)
Visibility: 10 or more miles (16+ km)
Ceiling: 1600 feet AGL
Clouds: few clouds at 500 feet AGL
scattered clouds at 1200 feet AGL
broken clouds at 1600 feet AGL
overcast cloud deck at 2300 feet AGL
Weather: automated observation with no human augmentation;
there may or may not be significant weather present at this time

METAR text: KAFF 300604Z AUTO 01004KT 10SM FEW005 SCT009 OVC016 14/14 A3029 RMK AO2 CIG 010V016
Conditions at: KAFF (USAF ACADEMY/COS, CO, US) observed 0604 UTC 30 July 2014
Temperature: 14.0°C (57°F)
Dewpoint: 14.0°C (57°F) [RH = 100%]
Pressure (altimeter): 30.29 inches Hg (1025.8 mb)
Winds: from the N (10 degrees) at 5 MPH (4 knots; 2.1 m/s)
Visibility: 10 or more miles (16+ km)
Ceiling: 1600 feet AGL
Clouds: few clouds at 500 feet AGL
scattered clouds at 900 feet AGL
overcast cloud deck at 1600 feet AGL
Weather: automated observation with no human augmentation;
there may or may not be significant weather present at this time

METAR text: KAFF 300558Z AUTO 36004KT 9SM -DZ BKN010 OVC019 14/14 A3029 RMK AO2 RAB0546E0555DZB0504 CIG 010V013 SLP178 P0001 60065 T01440142 10189 20144 58002
Conditions at: KAFF (USAF ACADEMY/COS, CO, US) observed 0558 UTC 30 July 2014
Temperature: 14.4°C (58°F)
Dewpoint: 14.2°C (58°F) [RH = 99%]
Pressure (altimeter): 30.29 inches Hg (1025.8 mb[Sea-level pressure: 1017.8 mb]
Winds: from the N (360 degrees) at 5 MPH (4 knots; 2.1 m/s)
Visibility: 9 miles (14 km)
Ceiling: 1000 feet AGL
Clouds: broken clouds at 1000 feet AGL
overcast cloud deck at 1900 feet AGL
Weather: -DZ  (light drizzle)

METAR text: KAFF 300546Z AUTO 35004KT 10SM -RA SCT005 OVC011 14/14 A3030 RMK AO2 DZB0504E0537
Conditions at: KAFF (USAF ACADEMY/COS, CO, US) observed 0546 UTC 30 July 2014
Temperature: 14.0°C (57°F)
Dewpoint: 14.0°C (57°F) [RH = 100%]
Pressure (altimeter): 30.30 inches Hg (1026.2 mb)
Winds: from the N (350 degrees) at 5 MPH (4 knots; 2.1 m/s)
Visibility: 10 or more miles (16+ km)
Ceiling: 1100 feet AGL
Clouds: scattered clouds at 500 feet AGL
overcast cloud deck at 1100 feet AGL
Weather: -RA  (light rain)

METAR text: KAFF 300537Z AUTO 35003KT 9SM FEW005 OVC010 15/14 A3030 RMK AO2 CIG 010V016 OVC V SCT
Conditions at: KAFF (USAF ACADEMY/COS, CO, US) observed 0537 UTC 30 July 2014
Temperature: 15.0°C (59°F)
Dewpoint: 14.0°C (57°F) [RH = 94%]
Pressure (altimeter): 30.30 inches Hg (1026.2 mb)
Winds: from the N (350 degrees) at 3 MPH (3 knots; 1.6 m/s)
Visibility: 9 miles (14 km)
Ceiling: 1000 feet AGL
Clouds: few clouds at 500 feet AGL
overcast cloud deck at 1000 feet AGL
Weather: automated observation with no human augmentation;
there may or may not be significant weather present at this time

METAR text: KAFF 300529Z AUTO VRB01KT 5SM -DZ BR SCT004 BKN010 OVC016 15/15 A3030 RMK AO2 CIG 010V016 BKN V SCT
Conditions at: KAFF (USAF ACADEMY/COS, CO, US) observed 0529 UTC 30 July 2014
Temperature: 15.0°C (59°F)
Dewpoint: 15.0°C (59°F) [RH = 100%]
Pressure (altimeter): 30.30 inches Hg (1026.2 mb)
Winds: variable direction winds at 1 MPH (1 knots; 0.5 m/s)
Visibility: 5 miles (8 km)
Ceiling: 1000 feet AGL
Clouds: scattered clouds at 400 feet AGL
broken clouds at 1000 feet AGL
overcast cloud deck at 1600 feet AGL
Weather: -DZ BR  (light drizzle, mist)

METAR text: KAFF 300509Z AUTO 00000KT 6SM -DZ BR BKN018 BKN026 15/15 A3030 RMK AO2 DZB0504 CIG 018V025
Conditions at: KAFF (USAF ACADEMY/COS, CO, US) observed 0509 UTC 30 July 2014
Temperature: 15.0°C (59°F)
Dewpoint: 15.0°C (59°F) [RH = 100%]
Pressure (altimeter): 30.30 inches Hg (1026.2 mb)
Winds: calm
Visibility: 6 miles (10 km)
Ceiling: 1800 feet AGL
Clouds: broken clouds at 1800 feet AGL
broken clouds at 2600 feet AGL
Weather: -DZ BR  (light drizzle, mist)

METAR text: KAFF 300504Z AUTO 00000KT 9SM -DZ SCT016 BKN022 BKN027 15/15 A3030 RMK AO2
Conditions at: KAFF (USAF ACADEMY/COS, CO, US) observed 0504 UTC 30 July 2014
Temperature: 15.0°C (59°F)
Dewpoint: 15.0°C (59°F) [RH = 100%]
Pressure (altimeter): 30.30 inches Hg (1026.2 mb)
Winds: calm
Visibility: 9 miles (14 km)
Ceiling: 2200 feet AGL
Clouds: scattered clouds at 1600 feet AGL
broken clouds at 2200 feet AGL
broken clouds at 2700 feet AGL
Weather: -DZ  (light drizzle)

METAR text: KAFF 300458Z AUTO 00000KT 10SM FEW016 BKN024 15/15 A3030 RMK AO2 RAE0421DZB0421E0426 BKN V SCT SLP176 P0001 T01470145
Conditions at: KAFF (USAF ACADEMY/COS, CO, US) observed 0458 UTC 30 July 2014
Temperature: 14.7°C (58°F)
Dewpoint: 14.5°C (58°F) [RH = 99%]
Pressure (altimeter): 30.30 inches Hg (1026.2 mb[Sea-level pressure: 1017.6 mb]
Winds: calm
Visibility: 10 or more miles (16+ km)
Ceiling: 2400 feet AGL
Clouds: few clouds at 1600 feet AGL
broken clouds at 2400 feet AGL
Weather: automated observation with no human augmentation;
there may or may not be significant weather present at this time

METAR text: KAFF 300456Z AUTO 00000KT 10SM FEW016 BKN024 15/15 A3030 RMK AO2 RAE0421DZB0421E0426 BKN V SCT
Conditions at: KAFF (USAF ACADEMY/COS, CO, US) observed 0456 UTC 30 July 2014
Temperature: 15.0°C (59°F)
Dewpoint: 15.0°C (59°F) [RH = 100%]
Pressure (altimeter): 30.30 inches Hg (1026.2 mb)
Winds: calm
Visibility: 10 or more miles (16+ km)
Ceiling: 2400 feet AGL
Clouds: few clouds at 1600 feet AGL
broken clouds at 2400 feet AGL
Weather: automated observation with no human augmentation;
there may or may not be significant weather present at this time

METAR text: KAFF 300446Z AUTO 17001KT 10SM SCT022 15/15 A3030 RMK AO2
Conditions at: KAFF (USAF ACADEMY/COS, CO, US) observed 0446 UTC 30 July 2014
Temperature: 15.0°C (59°F)
Dewpoint: 15.0°C (59°F) [RH = 100%]
Pressure (altimeter): 30.30 inches Hg (1026.2 mb)
Winds: from the S (170 degrees) at 1 MPH (1 knots; 0.5 m/s)
Visibility: 10 or more miles (16+ km)
Ceiling: at least 12,000 feet AGL
Clouds: scattered clouds at 2200 feet AGL
Weather: automated observation with no human augmentation;
there may or may not be significant weather present at this time

METAR text: KAFF 300426Z AUTO 25003KT 10SM SCT016 BKN024 BKN031 15/15 A3031 RMK AO2 RAE0421DZB0421 CIG 015V024 BKN024 V OVC
Conditions at: KAFF (USAF ACADEMY/COS, CO, US) observed 0426 UTC 30 July 2014
Temperature: 15.0°C (59°F)
Dewpoint: 15.0°C (59°F) [RH = 100%]
Pressure (altimeter): 30.31 inches Hg (1026.5 mb)
Winds: from the WSW (250 degrees) at 3 MPH (3 knots; 1.6 m/s)
Visibility: 10 or more miles (16+ km)
Ceiling: 2400 feet AGL
Clouds: scattered clouds at 1600 feet AGL
broken clouds at 2400 feet AGL
broken clouds at 3100 feet AGL
Weather: automated observation with no human augmentation;
there may or may not be significant weather present at this time

METAR text: KAFF 300418Z AUTO 24005KT 10SM -RA BKN015 OVC024 15/15 A3031 RMK AO2
Conditions at: KAFF (USAF ACADEMY/COS, CO, US) observed 0418 UTC 30 July 2014
Temperature: 15.0°C (59°F)
Dewpoint: 15.0°C (59°F) [RH = 100%]
Pressure (altimeter): 30.31 inches Hg (1026.5 mb)
Winds: from the WSW (240 degrees) at 6 MPH (5 knots; 2.6 m/s)
Visibility: 10 or more miles (16+ km)
Ceiling: 1500 feet AGL
Clouds: broken clouds at 1500 feet AGL
overcast cloud deck at 2400 feet AGL
Weather: -RA  (light rain)

METAR text: KAFF 300358Z AUTO 29003KT 10SM -RA OVC013 15/15 A3031 RMK AO2 OVC V BKN SLP185 P0013 T01490147
Conditions at: KAFF (USAF ACADEMY/COS, CO, US) observed 0358 UTC 30 July 2014
Temperature: 14.9°C (59°F)
Dewpoint: 14.7°C (58°F) [RH = 99%]
Pressure (altimeter): 30.31 inches Hg (1026.5 mb[Sea-level pressure: 1018.5 mb]
Winds: from the WNW (290 degrees) at 3 MPH (3 knots; 1.6 m/s)
Visibility: 10 or more miles (16+ km)
Ceiling: 1300 feet AGL
Clouds: overcast cloud deck at 1300 feet AGL
Weather: -RA  (light rain)

METAR text: KAFF 300348Z AUTO 28004KT 7SM -RA FEW001 BKN013 OVC018 15/15 A3031 RMK AO2 CIG 013V019 BKN V SCT
Conditions at: KAFF (USAF ACADEMY/COS, CO, US) observed 0348 UTC 30 July 2014
Temperature: 15.0°C (59°F)
Dewpoint: 15.0°C (59°F) [RH = 100%]
Pressure (altimeter): 30.31 inches Hg (1026.5 mb)
Winds: from the W (280 degrees) at 5 MPH (4 knots; 2.1 m/s)
Visibility: 7 miles (11 km)
Ceiling: 1300 feet AGL
Clouds: few clouds at 100 feet AGL
broken clouds at 1300 feet AGL
overcast cloud deck at 1800 feet AGL
Weather: -RA  (light rain)

METAR text: KAFF 300333Z AUTO 18002KT 8SM -RA FEW001 BKN016 OVC029 15/14 A3030 RMK AO2 CIG 016V021
Conditions at: KAFF (USAF ACADEMY/COS, CO, US) observed 0333 UTC 30 July 2014
Temperature: 15.0°C (59°F)
Dewpoint: 14.0°C (57°F) [RH = 94%]
Pressure (altimeter): 30.30 inches Hg (1026.2 mb)
Winds: from the S (180 degrees) at 2 MPH (2 knots; 1.0 m/s)
Visibility: 8 miles (13 km)
Ceiling: 1600 feet AGL
Clouds: few clouds at 100 feet AGL
broken clouds at 1600 feet AGL
overcast cloud deck at 2900 feet AGL
Weather: -RA  (light rain)

METAR text: KAFF 300328Z AUTO 00000KT 4SM -RA BR FEW001 OVC021 15/14 A3030 RMK AO2
Conditions at: KAFF (USAF ACADEMY/COS, CO, US) observed 0328 UTC 30 July 2014
Temperature: 15.0°C (59°F)
Dewpoint: 14.0°C (57°F) [RH = 94%]
Pressure (altimeter): 30.30 inches Hg (1026.2 mb)
Winds: calm
Visibility: 4 miles (6 km)
Ceiling: 2100 feet AGL
Clouds: few clouds at 100 feet AGL
overcast cloud deck at 2100 feet AGL
Weather: -RA BR  (light rain, mist)

METAR text: KAFF 300323Z AUTO 00000KT 3SM RA BR FEW001 OVC021 15/14 A3030 RMK AO2
Conditions at: KAFF (USAF ACADEMY/COS, CO, US) observed 0323 UTC 30 July 2014
Temperature: 15.0°C (59°F)
Dewpoint: 14.0°C (57°F) [RH = 94%]
Pressure (altimeter): 30.30 inches Hg (1026.2 mb)
Winds: calm
Visibility: 3 miles (5 km)
Ceiling: 2100 feet AGL
Clouds: few clouds at 100 feet AGL
overcast cloud deck at 2100 feet AGL
Weather: RA BR  (rain, mist)

METAR text: KAFF 300318Z AUTO 00000KT 4SM -RA BR FEW001 OVC019 15/14 A3030 RMK AO2 LTG DSNT E CIG 014V020
Conditions at: KAFF (USAF ACADEMY/COS, CO, US) observed 0318 UTC 30 July 2014
Temperature: 15.0°C (59°F)
Dewpoint: 14.0°C (57°F) [RH = 94%]
Pressure (altimeter): 30.30 inches Hg (1026.2 mb)
Winds: calm
Visibility: 4 miles (6 km)
Ceiling: 1900 feet AGL
Clouds: few clouds at 100 feet AGL
overcast cloud deck at 1900 feet AGL
Weather: -RA BR  (light rain, mist)

METAR text: KAFF 300313Z AUTO 03002KT 4SM -RA BR SCT001 OVC018 15/15 A3030 RMK AO2 LTG DSNT E CIG 013V018
Conditions at: KAFF (USAF ACADEMY/COS, CO, US) observed 0313 UTC 30 July 2014
Temperature: 15.0°C (59°F)
Dewpoint: 15.0°C (59°F) [RH = 100%]
Pressure (altimeter): 30.30 inches Hg (1026.2 mb)
Winds: from the NNE (30 degrees) at 2 MPH (2 knots; 1.0 m/s)
Visibility: 4 miles (6 km)
Ceiling: 1800 feet AGL
Clouds: scattered clouds at 100 feet AGL
overcast cloud deck at 1800 feet AGL
Weather: -RA BR  (light rain, mist)

METAR text: KAFF 300303Z AUTO 05002KT 8SM -RA FEW002 BKN013 OVC021 15/15 A3030 RMK AO2 LTG DSNT E CIG 007V013
Conditions at: KAFF (USAF ACADEMY/COS, CO, US) observed 0303 UTC 30 July 2014
Temperature: 15.0°C (59°F)
Dewpoint: 15.0°C (59°F) [RH = 100%]
Pressure (altimeter): 30.30 inches Hg (1026.2 mb)
Winds: from the NE (50 degrees) at 2 MPH (2 knots; 1.0 m/s)
Visibility: 8 miles (13 km)
Ceiling: 1300 feet AGL
Clouds: few clouds at 200 feet AGL
broken clouds at 1300 feet AGL
overcast cloud deck at 2100 feet AGL
Weather: -RA  (light rain)

METAR text: KAFF 300258Z AUTO 25002KT 6SM -RA BR SCT002 BKN007 OVC019 15/15 A3030 RMK AO2 CIG 007V010 SLP187 P0037 60050 53013
Conditions at: KAFF (USAF ACADEMY/COS, CO, US) observed 0258 UTC 30 July 2014
Temperature: 15.0°C (59°F)
Dewpoint: 15.0°C (59°F) [RH = 100%]
Pressure (altimeter): 30.30 inches Hg (1026.2 mb[Sea-level pressure: 1018.7 mb]
Winds: from the WSW (250 degrees) at 2 MPH (2 knots; 1.0 m/s)
Visibility: 6 miles (10 km)
Ceiling: 700 feet AGL
Clouds: scattered clouds at 200 feet AGL
broken clouds at 700 feet AGL
overcast cloud deck at 1900 feet AGL
Weather: -RA BR  (light rain, mist)

METAR text: KAFF 300253Z AUTO VRB01KT 3SM -RA BR SCT001 OVC008 15/15 A3030 RMK AO2 RAB0158DZE0158 CIG 008V011 PRESRR
Conditions at: KAFF (USAF ACADEMY/COS, CO, US) observed 0253 UTC 30 July 2014
Temperature: 15.0°C (59°F)
Dewpoint: 15.0°C (59°F) [RH = 100%]
Pressure (altimeter): 30.30 inches Hg (1026.2 mb)
Winds: variable direction winds at 1 MPH (1 knots; 0.5 m/s)
Visibility: 3 miles (5 km)
Ceiling: 800 feet AGL
Clouds: scattered clouds at 100 feet AGL
overcast cloud deck at 800 feet AGL
Weather: -RA BR  (light rain, mist)

METAR text: KAFF 300243Z AUTO VRB01KT 2SM +RA BR FEW001 OVC011 15/15 A3028 RMK AO2 VIS 2V5 RAB0158DZE0158
Conditions at: KAFF (USAF ACADEMY/COS, CO, US) observed 0243 UTC 30 July 2014
Temperature: 15.0°C (59°F)
Dewpoint: 15.0°C (59°F) [RH = 100%]
Pressure (altimeter): 30.28 inches Hg (1025.5 mb)
Winds: variable direction winds at 1 MPH (1 knots; 0.5 m/s)
Visibility: 2.00 miles (3.22 km)
Ceiling: 1100 feet AGL
Clouds: few clouds at 100 feet AGL
overcast cloud deck at 1100 feet AGL
Weather: +RA BR  (heavy rain, mist)

METAR text: KAFF 300238Z AUTO 09004KT 4SM RA BR SCT001 OVC012 15/15 A3028 RMK AO2 RAB0158DZE0158
Conditions at: KAFF (USAF ACADEMY/COS, CO, US) observed 0238 UTC 30 July 2014
Temperature: 15.0°C (59°F)
Dewpoint: 15.0°C (59°F) [RH = 100%]
Pressure (altimeter): 30.28 inches Hg (1025.5 mb)
Winds: from the E (90 degrees) at 5 MPH (4 knots; 2.1 m/s)
Visibility: 4 miles (6 km)
Ceiling: 1200 feet AGL
Clouds: scattered clouds at 100 feet AGL
overcast cloud deck at 1200 feet AGL
Weather: RA BR  (rain, mist)

METAR text: KAFF 300233Z AUTO 11008KT 5SM -RA BR FEW001 OVC012 16/15 A3028 RMK AO2 LTG DSNT S RAB0158DZE0158
Conditions at: KAFF (USAF ACADEMY/COS, CO, US) observed 0233 UTC 30 July 2014
Temperature: 16.0°C (61°F)
Dewpoint: 15.0°C (59°F) [RH = 94%]
Pressure (altimeter): 30.28 inches Hg (1025.5 mb)
Winds: from the ESE (110 degrees) at 9 MPH (8 knots; 4.2 m/s)
Visibility: 5 miles (8 km)
Ceiling: 1200 feet AGL
Clouds: few clouds at 100 feet AGL
overcast cloud deck at 1200 feet AGL
Weather: -RA BR  (light rain, mist)

METAR text: KAFF 300223Z AUTO 10003KT 6SM -RA BR BKN015 BKN020 OVC025 16/15 A3028 RMK AO2 LTG DSNT S RAB0158DZE0158
Conditions at: KAFF (USAF ACADEMY/COS, CO, US) observed 0223 UTC 30 July 2014
Temperature: 16.0°C (61°F)
Dewpoint: 15.0°C (59°F) [RH = 94%]
Pressure (altimeter): 30.28 inches Hg (1025.5 mb)
Winds: from the E (100 degrees) at 3 MPH (3 knots; 1.6 m/s)
Visibility: 6 miles (10 km)
Ceiling: 1500 feet AGL
Clouds: broken clouds at 1500 feet AGL
broken clouds at 2000 feet AGL
overcast cloud deck at 2500 feet AGL
Weather: -RA BR  (light rain, mist)

METAR text: KAFF 300218Z AUTO 07003KT 5SM -RA BR BKN014 OVC022 16/15 A3027 RMK AO2 LTG DSNT S RAB0158DZE0158
Conditions at: KAFF (USAF ACADEMY/COS, CO, US) observed 0218 UTC 30 July 2014
Temperature: 16.0°C (61°F)
Dewpoint: 15.0°C (59°F) [RH = 94%]
Pressure (altimeter): 30.27 inches Hg (1025.1 mb)
Winds: from the ENE (70 degrees) at 3 MPH (3 knots; 1.6 m/s)
Visibility: 5 miles (8 km)
Ceiling: 1400 feet AGL
Clouds: broken clouds at 1400 feet AGL
overcast cloud deck at 2200 feet AGL
Weather: -RA BR  (light rain, mist)

METAR text: KAFF 300208Z AUTO 04005KT 1 3/4SM RA BR BKN012 OVC024 16/15 A3027 RMK AO2 VIS 1 3/4V10 RAB0158DZE0158 CIG 012V024
Conditions at: KAFF (USAF ACADEMY/COS, CO, US) observed 0208 UTC 30 July 2014
Temperature: 16.0°C (61°F)
Dewpoint: 15.0°C (59°F) [RH = 94%]
Pressure (altimeter): 30.27 inches Hg (1025.1 mb)
Winds: from the NE (40 degrees) at 6 MPH (5 knots; 2.6 m/s)
Visibility: 1.75 miles (2.82 km)
Ceiling: 1200 feet AGL
Clouds: broken clouds at 1200 feet AGL
overcast cloud deck at 2400 feet AGL
Weather: RA BR  (rain, mist)

METAR text: KAFF 300203Z AUTO 34007KT 8SM -RA BKN013 BKN024 16/15 A3027 RMK AO2 LTG DSNT SE RAB0158DZE0158 CIG 013V024 BKN013 V SCT
Conditions at: KAFF (USAF ACADEMY/COS, CO, US) observed 0203 UTC 30 July 2014
Temperature: 16.0°C (61°F)
Dewpoint: 15.0°C (59°F) [RH = 94%]
Pressure (altimeter): 30.27 inches Hg (1025.1 mb)
Winds: from the NNW (340 degrees) at 8 MPH (7 knots; 3.6 m/s)
Visibility: 8 miles (13 km)
Ceiling: 1300 feet AGL
Clouds: broken clouds at 1300 feet AGL
broken clouds at 2400 feet AGL
Weather: -RA  (light rain)

METAR text: KAFF 300158Z AUTO 36007KT 10SM -RA FEW002 SCT013 BKN024 16/15 A3027 RMK AO2 LTG DSNT SE RAE0155DZB0155 TSE0100 CIG 013V024 SLP181 P0006 T01630148
Conditions at: KAFF (USAF ACADEMY/COS, CO, US) observed 0158 UTC 30 July 2014
Temperature: 16.3°C (61°F)
Dewpoint: 14.8°C (59°F) [RH = 91%]
Pressure (altimeter): 30.27 inches Hg (1025.1 mb[Sea-level pressure: 1018.1 mb]
Winds: from the N (360 degrees) at 8 MPH (7 knots; 3.6 m/s)
Visibility: 10 or more miles (16+ km)
Ceiling: 2400 feet AGL
Clouds: few clouds at 200 feet AGL
scattered clouds at 1300 feet AGL
broken clouds at 2400 feet AGL
Weather: -RA  (light rain)

METAR text: KAFF 300156Z AUTO 02006KT 10SM -DZ FEW002 SCT013 BKN022 16/15 A3027 RMK AO2 LTG DSNT SE RAE0155DZB0155 TSE0100 CIG 013V022
Conditions at: KAFF (USAF ACADEMY/COS, CO, US) observed 0156 UTC 30 July 2014
Temperature: 16.0°C (61°F)
Dewpoint: 15.0°C (59°F) [RH = 94%]
Pressure (altimeter): 30.27 inches Hg (1025.1 mb)
Winds: from the NNE (20 degrees) at 7 MPH (6 knots; 3.1 m/s)
Visibility: 10 or more miles (16+ km)
Ceiling: 2200 feet AGL
Clouds: few clouds at 200 feet AGL
scattered clouds at 1300 feet AGL
broken clouds at 2200 feet AGL
Weather: -DZ  (light drizzle)

METAR text: KAFF 300146Z AUTO 32005KT 9SM -RA FEW002 BKN013 OVC021 16/16 A3027 RMK AO2 LTG DSNT SE TSE0100 CIG 013V020 BKN V SCT
Conditions at: KAFF (USAF ACADEMY/COS, CO, US) observed 0146 UTC 30 July 2014
Temperature: 16.0°C (61°F)
Dewpoint: 16.0°C (61°F) [RH = 100%]
Pressure (altimeter): 30.27 inches Hg (1025.1 mb)
Winds: from the NW (320 degrees) at 6 MPH (5 knots; 2.6 m/s)
Visibility: 9 miles (14 km)
Ceiling: 1300 feet AGL
Clouds: few clouds at 200 feet AGL
broken clouds at 1300 feet AGL
overcast cloud deck at 2100 feet AGL
Weather: -RA  (light rain)

METAR text: KAFF 300131Z AUTO 35005KT 9SM -RA BKN021 OVC045 16/16 A3026 RMK AO2 TSE0100 CIG 021V044
Conditions at: KAFF (USAF ACADEMY/COS, CO, US) observed 0131 UTC 30 July 2014
Temperature: 16.0°C (61°F)
Dewpoint: 16.0°C (61°F) [RH = 100%]
Pressure (altimeter): 30.26 inches Hg (1024.8 mb)
Winds: from the N (350 degrees) at 6 MPH (5 knots; 2.6 m/s)
Visibility: 9 miles (14 km)
Ceiling: 2100 feet AGL
Clouds: broken clouds at 2100 feet AGL
overcast cloud deck at 4500 feet AGL
Weather: -RA  (light rain)

METAR text: KAFF 300111Z AUTO 05005KT 10SM -RA FEW009 SCT021 BKN047 17/15 A3025 RMK AO2 LTG DSNT E-SE RAE0104 TSE0100
Conditions at: KAFF (USAF ACADEMY/COS, CO, US) observed 0111 UTC 30 July 2014
Temperature: 17.0°C (63°F)
Dewpoint: 15.0°C (59°F) [RH = 88%]
Pressure (altimeter): 30.25 inches Hg (1024.5 mb)
Winds: from the NE (50 degrees) at 6 MPH (5 knots; 2.6 m/s)
Visibility: 10 or more miles (16+ km)
Ceiling: 4700 feet AGL
Clouds: few clouds at 900 feet AGL
scattered clouds at 2100 feet AGL
broken clouds at 4700 feet AGL
Weather: -RA  (light rain)

METAR text: KAFF 300109Z AUTO 04005KT 10SM FEW005 SCT021 BKN047 17/15 A3025 RMK AO2 LTG DSNT E-SE RAE0104 TSE0100
Conditions at: KAFF (USAF ACADEMY/COS, CO, US) observed 0109 UTC 30 July 2014
Temperature: 17.0°C (63°F)
Dewpoint: 15.0°C (59°F) [RH = 88%]
Pressure (altimeter): 30.25 inches Hg (1024.5 mb)
Winds: from the NE (40 degrees) at 6 MPH (5 knots; 2.6 m/s)
Visibility: 10 or more miles (16+ km)
Ceiling: 4700 feet AGL
Clouds: few clouds at 500 feet AGL
scattered clouds at 2100 feet AGL
broken clouds at 4700 feet AGL
Weather: automated observation with no human augmentation;
there may or may not be significant weather present at this time

METAR text: KAFF 300104Z AUTO 06008KT 10SM SCT008 BKN021 BKN048 17/15 A3025 RMK AO2 LTG DSNT SE TSE0100 CIG 011V021
Conditions at: KAFF (USAF ACADEMY/COS, CO, US) observed 0104 UTC 30 July 2014
Temperature: 17.0°C (63°F)
Dewpoint: 15.0°C (59°F) [RH = 88%]
Pressure (altimeter): 30.25 inches Hg (1024.5 mb)
Winds: from the ENE (60 degrees) at 9 MPH (8 knots; 4.2 m/s)
Visibility: 10 or more miles (16+ km)
Ceiling: 2100 feet AGL
Clouds: scattered clouds at 800 feet AGL
broken clouds at 2100 feet AGL
broken clouds at 4800 feet AGL
Weather: automated observation with no human augmentation;
there may or may not be significant weather present at this time

METAR text: KAFF 300100Z AUTO 06006KT 10SM -RA SCT011 BKN021 17/16 A3025 RMK AO2 LTG DSNT SE CIG 011V021
Conditions at: KAFF (USAF ACADEMY/COS, CO, US) observed 0100 UTC 30 July 2014
Temperature: 17.0°C (63°F)
Dewpoint: 16.0°C (61°F) [RH = 94%]
Pressure (altimeter): 30.25 inches Hg (1024.5 mb)
Winds: from the ENE (60 degrees) at 7 MPH (6 knots; 3.1 m/s)
Visibility: 10 or more miles (16+ km)
Ceiling: 2100 feet AGL
Clouds: scattered clouds at 1100 feet AGL
broken clouds at 2100 feet AGL
Weather: -RA  (light rain)

METAR text: KAFF 300058Z AUTO 07006KT 10SM -TSRA BKN011 BKN021 17/16 A3025 RMK AO2 LTG DSNT SE RAB0013 TSB0016E0040B0045 SLP179 P0007 T01700159
Conditions at: KAFF (USAF ACADEMY/COS, CO, US) observed 0058 UTC 30 July 2014
Temperature: 17.0°C (63°F)
Dewpoint: 15.9°C (61°F) [RH = 93%]
Pressure (altimeter): 30.25 inches Hg (1024.5 mb[Sea-level pressure: 1017.9 mb]
Winds: from the ENE (70 degrees) at 7 MPH (6 knots; 3.1 m/s)
Visibility: 10 or more miles (16+ km)
Ceiling: 1100 feet AGL
Clouds: broken clouds at 1100 feet AGL
broken clouds at 2100 feet AGL
Weather: -TSRA  (light rain associated with thunderstorm(s))

METAR text: KAFF 300045Z AUTO 03006KT 10SM -TSRA FEW001 OVC014 17/17 A3026 RMK AO2 LTG DSNT SE RAB0013 TSB0016E0040 CIG 014V021
Conditions at: KAFF (USAF ACADEMY/COS, CO, US) observed 0045 UTC 30 July 2014
Temperature: 17.0°C (63°F)
Dewpoint: 17.0°C (63°F) [RH = 100%]
Pressure (altimeter): 30.26 inches Hg (1024.8 mb)
Winds: from the NNE (30 degrees) at 7 MPH (6 knots; 3.1 m/s)
Visibility: 10 or more miles (16+ km)
Ceiling: 1400 feet AGL
Clouds: few clouds at 100 feet AGL
overcast cloud deck at 1400 feet AGL
Weather: -TSRA  (light rain associated with thunderstorm(s))

METAR text: KAFF 300040Z AUTO 02005KT 9SM -RA VCTS FEW001 OVC018 17/16 A3026 RMK AO2 LTG DSNT SE-SW RAB0013 TSB0016 CIG 018V022
Conditions at: KAFF (USAF ACADEMY/COS, CO, US) observed 0040 UTC 30 July 2014
Temperature: 17.0°C (63°F)
Dewpoint: 16.0°C (61°F) [RH = 94%]
Pressure (altimeter): 30.26 inches Hg (1024.8 mb)
Winds: from the NNE (20 degrees) at 6 MPH (5 knots; 2.6 m/s)
Visibility: 9 miles (14 km)
Ceiling: 1800 feet AGL
Clouds: few clouds at 100 feet AGL
overcast cloud deck at 1800 feet AGL
Weather: -RA VCTS  (light rain, thunderstorm in vicinity)

METAR text: KAFF 300031Z AUTO 02007KT 5SM TSRA BR FEW001 BKN022 OVC050 17/16 A3025 RMK AO2 LTG DSNT SE-SW RAB0013 TSB0016 CIG 014V050
Conditions at: KAFF (USAF ACADEMY/COS, CO, US) observed 0031 UTC 30 July 2014
Temperature: 17.0°C (63°F)
Dewpoint: 16.0°C (61°F) [RH = 94%]
Pressure (altimeter): 30.25 inches Hg (1024.5 mb)
Winds: from the NNE (20 degrees) at 8 MPH (7 knots; 3.6 m/s)
Visibility: 5 miles (8 km)
Ceiling: 2200 feet AGL
Clouds: few clouds at 100 feet AGL
broken clouds at 2200 feet AGL
overcast cloud deck at 5000 feet AGL
Weather: TSRA BR  (rain associated with thunderstorm(s), mist)

METAR text: KAFF 300026Z AUTO 01008KT 3SM TSRA BR FEW001 BKN024 OVC050 18/17 A3025 RMK AO2 LTG DSNT S RAB0013 TSB0016 CIG 014V050
Conditions at: KAFF (USAF ACADEMY/COS, CO, US) observed 0026 UTC 30 July 2014
Temperature: 18.0°C (64°F)
Dewpoint: 17.0°C (63°F) [RH = 94%]
Pressure (altimeter): 30.25 inches Hg (1024.5 mb)
Winds: from the N (10 degrees) at 9 MPH (8 knots; 4.2 m/s)
Visibility: 3 miles (5 km)
Ceiling: 2400 feet AGL
Clouds: few clouds at 100 feet AGL
broken clouds at 2400 feet AGL
overcast cloud deck at 5000 feet AGL
Weather: TSRA BR  (rain associated with thunderstorm(s), mist)

METAR text: KAFF 300021Z AUTO 35007KT 4SM +TSRA BR FEW001 SCT014 BKN050 18/16 A3026 RMK AO2 LTG DSNT S-SW RAB0013 TSB0016
Conditions at: KAFF (USAF ACADEMY/COS, CO, US) observed 0021 UTC 30 July 2014
Temperature: 18.0°C (64°F)
Dewpoint: 16.0°C (61°F) [RH = 88%]
Pressure (altimeter): 30.26 inches Hg (1024.8 mb)
Winds: from the N (350 degrees) at 8 MPH (7 knots; 3.6 m/s)
Visibility: 4 miles (6 km)
Ceiling: 5000 feet AGL
Clouds: few clouds at 100 feet AGL
scattered clouds at 1400 feet AGL
broken clouds at 5000 feet AGL
Weather: +TSRA BR  (heavy rain associated with thunderstorm(s), mist)

METAR text: KAFF 300016Z AUTO 34009KT 7SM -TSRA FEW020 BKN050 19/16 A3025 RMK AO2 LTG DSNT SW-W RAB0013
Conditions at: KAFF (USAF ACADEMY/COS, CO, US) observed 0016 UTC 30 July 2014
Temperature: 19.0°C (66°F)
Dewpoint: 16.0°C (61°F) [RH = 83%]
Pressure (altimeter): 30.25 inches Hg (1024.5 mb)
Winds: from the NNW (340 degrees) at 10 MPH (9 knots; 4.7 m/s)
Visibility: 7 miles (11 km)
Ceiling: 5000 feet AGL
Clouds: few clouds at 2000 feet AGL
broken clouds at 5000 feet AGL
Weather: -TSRA  (light rain associated with thunderstorm(s))

METAR text: KAFF 300013Z AUTO 35010KT 10SM -RA VCTS BKN050 19/15 A3025 RMK AO2 LTG DSNT SW-W
Conditions at: KAFF (USAF ACADEMY/COS, CO, US) observed 0013 UTC 30 July 2014
Temperature: 19.0°C (66°F)
Dewpoint: 15.0°C (59°F) [RH = 78%]
Pressure (altimeter): 30.25 inches Hg (1024.5 mb)
Winds: from the N (350 degrees) at 12 MPH (10 knots; 5.2 m/s)
Visibility: 10 or more miles (16+ km)
Ceiling: 5000 feet AGL
Clouds: broken clouds at 5000 feet AGL
Weather: -RA VCTS  (light rain, thunderstorm in vicinity)

METAR text: KAFF 292358Z AUTO 02006KT 10SM FEW050 19/15 A3025 RMK AO2 RAB2256E2305DZB2305E2308 SLP179 P0000 60002 T01900146 10246 20172 50004
Conditions at: KAFF (USAF ACADEMY/COS, CO, US) observed 2358 UTC 29 July 2014
Temperature: 19.0°C (66°F)
Dewpoint: 14.6°C (58°F) [RH = 76%]
Pressure (altimeter): 30.25 inches Hg (1024.5 mb[Sea-level pressure: 1017.9 mb]
Winds: from the NNE (20 degrees) at 7 MPH (6 knots; 3.1 m/s)
Visibility: 10 or more miles (16+ km)
Ceiling: at least 12,000 feet AGL
Clouds: few clouds at 5000 feet AGL
Weather: automated observation with no human augmentation;
there may or may not be significant weather present at this time

METAR text: KAFF 292308Z 36005KT 10SM FEW015 FEW023 SCT080 SCT140 BKN180 19/15 A3024 RMK AO2A LTG DSNT E-S
Conditions at: KAFF (USAF ACADEMY/COS, CO, US) observed 2308 UTC 29 July 2014
Temperature: 19.0°C (66°F)
Dewpoint: 15.0°C (59°F) [RH = 78%]
Pressure (altimeter): 30.24 inches Hg (1024.1 mb)
Winds: from the N (360 degrees) at 6 MPH (5 knots; 2.6 m/s)
Visibility: 10 or more miles (16+ km)
Ceiling: at least 12,000 feet AGL
Clouds: few clouds at 1500 feet AGL
few clouds at 2300 feet AGL
scattered clouds at 8000 feet AGL
scattered clouds at 14000 feet AGL
Weather: no significant weather observed at this time

METAR text: KAFF 292258Z 07005KT 10SM -SHRA FEW015 FEW023 SCT080 SCT140 BKN180 19/15 A3024 RMK AO2A LTG DSNT E-S RAB2256 SLP176 P0001
Conditions at: KAFF (USAF ACADEMY/COS, CO, US) observed 2258 UTC 29 July 2014
Temperature: 19.0°C (66°F)
Dewpoint: 15.0°C (59°F) [RH = 78%]
Pressure (altimeter): 30.24 inches Hg (1024.1 mb[Sea-level pressure: 1017.6 mb]
Winds: from the ENE (70 degrees) at 6 MPH (5 knots; 2.6 m/s)
Visibility: 10 or more miles (16+ km)
Ceiling: at least 12,000 feet AGL
Clouds: few clouds at 1500 feet AGL
few clouds at 2300 feet AGL
scattered clouds at 8000 feet AGL
scattered clouds at 14000 feet AGL
Weather: -SHRA  (light rain showers)

METAR text: KAFF 292255Z 07006KT 10SM -SHRA FEW015 FEW023 SCT080 SCT140 BKN180 19/15 A3024 RMK AO2A
Conditions at: KAFF (USAF ACADEMY/COS, CO, US) observed 2255 UTC 29 July 2014
Temperature: 19.0°C (66°F)
Dewpoint: 15.0°C (59°F) [RH = 78%]
Pressure (altimeter): 30.24 inches Hg (1024.1 mb)
Winds: from the ENE (70 degrees) at 7 MPH (6 knots; 3.1 m/s)
Visibility: 10 or more miles (16+ km)
Ceiling: at least 12,000 feet AGL
Clouds: few clouds at 1500 feet AGL
few clouds at 2300 feet AGL
scattered clouds at 8000 feet AGL
scattered clouds at 14000 feet AGL
Weather: -SHRA  (light rain showers)

METAR text: KAFF 292217Z 35006KT 10SM VCTS FEW021 SCT080 SCT140 BKN180 17/15 A3024 RMK AO2A LTG DSNT NE-S RAE2214DZB2214
Conditions at: KAFF (USAF ACADEMY/COS, CO, US) observed 2217 UTC 29 July 2014
Temperature: 17.0°C (63°F)
Dewpoint: 15.0°C (59°F) [RH = 88%]
Pressure (altimeter): 30.24 inches Hg (1024.1 mb)
Winds: from the N (350 degrees) at 7 MPH (6 knots; 3.1 m/s)
Visibility: 10 or more miles (16+ km)
Ceiling: 18000 feet AGL
Clouds: few clouds at 2100 feet AGL
scattered clouds at 8000 feet AGL
scattered clouds at 14000 feet AGL
broken clouds at 18000 feet AGL
Weather: VCTS  (thunderstorm in vicinity)

METAR text: KAFF 292211Z 33007KT 10SM -RA VCTS FEW021 SCT080 SCT140 BKN180 17/15 A3024 RMK AO2A
Conditions at: KAFF (USAF ACADEMY/COS, CO, US) observed 2211 UTC 29 July 2014
Temperature: 17.0°C (63°F)
Dewpoint: 15.0°C (59°F) [RH = 88%]
Pressure (altimeter): 30.24 inches Hg (1024.1 mb)
Winds: from the NNW (330 degrees) at 8 MPH (7 knots; 3.6 m/s)
Visibility: 10 or more miles (16+ km)
Ceiling: 18000 feet AGL
Clouds: few clouds at 2100 feet AGL
scattered clouds at 8000 feet AGL
scattered clouds at 14000 feet AGL
broken clouds at 18000 feet AGL
Weather: -RA VCTS  (light rain, thunderstorm in vicinity)

METAR text: KAFF 292203Z AUTO 33010KT 10SM -RA VCTS OVC024 17/16 A3024 RMK AO2 LTG DSNT NE-SE AND W CIG 024V030
Conditions at: KAFF (USAF ACADEMY/COS, CO, US) observed 2203 UTC 29 July 2014
Temperature: 17.0°C (63°F)
Dewpoint: 16.0°C (61°F) [RH = 94%]
Pressure (altimeter): 30.24 inches Hg (1024.1 mb)
Winds: from the NNW (330 degrees) at 12 MPH (10 knots; 5.2 m/s)
Visibility: 10 or more miles (16+ km)
Ceiling: 2400 feet AGL
Clouds: overcast cloud deck at 2400 feet AGL
Weather: -RA VCTS  (light rain, thunderstorm in vicinity)

METAR text: KAFF 292158Z AUTO 34009KT 10SM -RA VCTS OVC027 18/15 A3024 RMK AO2 LTG DSNT NE-SE RAB2130 TSB2124E2142 CIG 027V035 OVC V BKN SLP176 P0001 T01780154
Conditions at: KAFF (USAF ACADEMY/COS, CO, US) observed 2158 UTC 29 July 2014
Temperature: 17.8°C (64°F)
Dewpoint: 15.4°C (60°F) [RH = 86%]
Pressure (altimeter): 30.24 inches Hg (1024.1 mb[Sea-level pressure: 1017.6 mb]
Winds: from the NNW (340 degrees) at 10 MPH (9 knots; 4.7 m/s)
Visibility: 10 or more miles (16+ km)
Ceiling: 2700 feet AGL
Clouds: overcast cloud deck at 2700 feet AGL
Weather: -RA VCTS  (light rain, thunderstorm in vicinity)

METAR text: KAFF 292157Z AUTO 35009KT 10SM -RA VCTS OVC027 18/15 A3024 RMK AO2 LTG DSNT NE-SE RAB2130 TSB2124E2142 CIG 027V037 OVC V BKN
Conditions at: KAFF (USAF ACADEMY/COS, CO, US) observed 2157 UTC 29 July 2014
Temperature: 18.0°C (64°F)
Dewpoint: 15.0°C (59°F) [RH = 83%]
Pressure (altimeter): 30.24 inches Hg (1024.1 mb)
Winds: from the N (350 degrees) at 10 MPH (9 knots; 4.7 m/s)
Visibility: 10 or more miles (16+ km)
Ceiling: 2700 feet AGL
Clouds: overcast cloud deck at 2700 feet AGL
Weather: -RA VCTS  (light rain, thunderstorm in vicinity)

METAR text: KAFF 292142Z AUTO 29009KT 9SM -RA BKN041 20/15 A3025 RMK AO2 LTG DSNT NE AND W RAB2130 TSB2124
Conditions at: KAFF (USAF ACADEMY/COS, CO, US) observed 2142 UTC 29 July 2014
Temperature: 20.0°C (68°F)
Dewpoint: 15.0°C (59°F) [RH = 73%]
Pressure (altimeter): 30.25 inches Hg (1024.5 mb)
Winds: from the WNW (290 degrees) at 10 MPH (9 knots; 4.7 m/s)
Visibility: 9 miles (14 km)
Ceiling: 4100 feet AGL
Clouds: broken clouds at 4100 feet AGL
Weather: -RA  (light rain)

METAR text: KAFF 292130Z AUTO 25010KT 10SM -TSRA FEW045 22/12 A3025 RMK AO2 LTG DSNT NE-E TSB2124
Conditions at: KAFF (USAF ACADEMY/COS, CO, US) observed 2130 UTC 29 July 2014
Temperature: 22.0°C (72°F)
Dewpoint: 12.0°C (54°F) [RH = 53%]
Pressure (altimeter): 30.25 inches Hg (1024.5 mb)
Winds: from the WSW (250 degrees) at 12 MPH (10 knots; 5.2 m/s)
Visibility: 10 or more miles (16+ km)
Ceiling: at least 12,000 feet AGL
Clouds: few clouds at 4500 feet AGL
Weather: -TSRA  (light rain associated with thunderstorm(s))

METAR text: KAFF 292124Z AUTO 22007KT 10SM TS FEW048 SCT200 23/12 A3024 RMK AO2 LTG DSNT NE-E
Conditions at: KAFF (USAF ACADEMY/COS, CO, US) observed 2124 UTC 29 July 2014
Temperature: 23.0°C (73°F)
Dewpoint: 12.0°C (54°F) [RH = 50%]
Pressure (altimeter): 30.24 inches Hg (1024.1 mb)
Winds: from the SW (220 degrees) at 8 MPH (7 knots; 3.6 m/s)
Visibility: 10 or more miles (16+ km)
Ceiling: at least 12,000 feet AGL
Clouds: few clouds at 4800 feet AGL
scattered clouds at 20000 feet AGL
Weather: TS  (thunderstorm)

METAR text: KAFF 292058Z AUTO VRB05KT 10SM VCTS FEW100 SCT160 SCT190 BKN210 24/11 A3024 RMK AO2 LTG DSNT N-NE SLP155 60000 T02360111 57018
Conditions at: KAFF (USAF ACADEMY/COS, CO, US) observed 2058 UTC 29 July 2014
Temperature: 23.6°C (74°F)
Dewpoint: 11.1°C (52°F) [RH = 45%]
Pressure (altimeter): 30.24 inches Hg (1024.1 mb[Sea-level pressure: 1015.5 mb]
Winds: variable direction winds at 6 MPH (5 knots; 2.6 m/s)
Visibility: 10 or more miles (16+ km)
Ceiling: 21000 feet AGL
Clouds: few clouds at 10000 feet AGL
scattered clouds at 16000 feet AGL
scattered clouds at 19000 feet AGL
broken clouds at 21000 feet AGL
Weather: VCTS  (thunderstorm in vicinity)

METAR text: KAFF 291958Z AUTO 16008KT 10SM VCTS FEW090 BKN190 24/12 A3025 RMK AO2 LTG DSNT N-NE SLP159 T02370118
Conditions at: KAFF (USAF ACADEMY/COS, CO, US) observed 1958 UTC 29 July 2014
Temperature: 23.7°C (75°F)
Dewpoint: 11.8°C (53°F) [RH = 47%]
Pressure (altimeter): 30.25 inches Hg (1024.5 mb[Sea-level pressure: 1015.9 mb]
Winds: from the SSE (160 degrees) at 9 MPH (8 knots; 4.2 m/s)
Visibility: 10 or more miles (16+ km)
Ceiling: 19000 feet AGL
Clouds: few clouds at 9000 feet AGL
broken clouds at 19000 feet AGL
Weather: VCTS  (thunderstorm in vicinity)

METAR text: KAFF 291858Z AUTO 20009KT 10SM FEW100 SCT150 SCT180 BKN210 23/12 A3028 RMK AO2 DZB1813E1823 SLP169 P0000 T02260122
Conditions at: KAFF (USAF ACADEMY/COS, CO, US) observed 1858 UTC 29 July 2014
Temperature: 22.6°C (73°F)
Dewpoint: 12.2°C (54°F) [RH = 52%]
Pressure (altimeter): 30.28 inches Hg (1025.5 mb[Sea-level pressure: 1016.9 mb]
Winds: from the SSW (200 degrees) at 10 MPH (9 knots; 4.7 m/s)
Visibility: 10 or more miles (16+ km)
Ceiling: 21000 feet AGL
Clouds: few clouds at 10000 feet AGL
scattered clouds at 15000 feet AGL
scattered clouds at 18000 feet AGL
broken clouds at 21000 feet AGL
Weather: automated observation with no human augmentation;
there may or may not be significant weather present at this time

METAR text: KAFF 291823Z AUTO 19010KT 10SM FEW120 SCT150 SCT210 23/13 A3029 RMK AO2 LTG DSNT NE AND S
Conditions at: KAFF (USAF ACADEMY/COS, CO, US) observed 1823 UTC 29 July 2014
Temperature: 23.0°C (73°F)
Dewpoint: 13.0°C (55°F) [RH = 53%]
Pressure (altimeter): 30.29 inches Hg (1025.8 mb)
Winds: from the S (190 degrees) at 12 MPH (10 knots; 5.2 m/s)
Visibility: 10 or more miles (16+ km)
Ceiling: at least 12,000 feet AGL
Clouds: few clouds at 12000 feet AGL
scattered clouds at 15000 feet AGL
scattered clouds at 21000 feet AGL
Weather: automated observation with no human augmentation;
there may or may not be significant weather present at this time

METAR text: KAFF 291813Z 17007KT 10SM -SHRA FEW120 SCT160 SCT190 23/13 A3030 RMK AO2A LTG DSNT NE AND S
Conditions at: KAFF (USAF ACADEMY/COS, CO, US) observed 1813 UTC 29 July 2014
Temperature: 23.0°C (73°F)
Dewpoint: 13.0°C (55°F) [RH = 53%]
Pressure (altimeter): 30.30 inches Hg (1026.2 mb)
Winds: from the S (170 degrees) at 8 MPH (7 knots; 3.6 m/s)
Visibility: 10 or more miles (16+ km)
Ceiling: at least 12,000 feet AGL
Clouds: few clouds at 12000 feet AGL
scattered clouds at 16000 feet AGL
scattered clouds at 19000 feet AGL
Weather: -SHRA  (light rain showers)

METAR text: KAFF 291758Z 19007KT 10SM FEW034 SCT140 SCT170 23/13 A3030 RMK AO2A LTG DSNT NE AND S SLP176 T02250134 10230 20110 57011
Conditions at: KAFF (USAF ACADEMY/COS, CO, US) observed 1758 UTC 29 July 2014
Temperature: 22.5°C (72°F)
Dewpoint: 13.4°C (56°F) [RH = 56%]
Pressure (altimeter): 30.30 inches Hg (1026.2 mb[Sea-level pressure: 1017.6 mb]
Winds: from the S (190 degrees) at 8 MPH (7 knots; 3.6 m/s)
Visibility: 10 or more miles (16+ km)
Ceiling: at least 12,000 feet AGL
Clouds: few clouds at 3400 feet AGL
scattered clouds at 14000 feet AGL
scattered clouds at 17000 feet AGL
Weather: no significant weather observed at this time

METAR text: KAFF 291658Z VRB04KT 10SM FEW033 SCT170 SCT210 22/13 A3032 RMK AO2A SLP183 T02220134
Conditions at: KAFF (USAF ACADEMY/COS, CO, US) observed 1658 UTC 29 July 2014
Temperature: 22.2°C (72°F)
Dewpoint: 13.4°C (56°F) [RH = 57%]
Pressure (altimeter): 30.32 inches Hg (1026.8 mb[Sea-level pressure: 1018.3 mb]
Winds: variable direction winds at 5 MPH (4 knots; 2.1 m/s)
Visibility: 10 or more miles (16+ km)
Ceiling: at least 12,000 feet AGL
Clouds: few clouds at 3300 feet AGL
scattered clouds at 17000 feet AGL
scattered clouds at 21000 feet AGL
Weather: no significant weather observed at this time

METAR text: KAFF 291643Z 18005KT 10SM FEW110 SCT200 22/12 A3032 RMK AO2A
Conditions at: KAFF (USAF ACADEMY/COS, CO, US) observed 1643 UTC 29 July 2014
Temperature: 22.0°C (72°F)
Dewpoint: 12.0°C (54°F) [RH = 53%]
Pressure (altimeter): 30.32 inches Hg (1026.8 mb)
Winds: from the S (180 degrees) at 6 MPH (5 knots; 2.6 m/s)
Visibility: 10 or more miles (16+ km)
Ceiling: at least 12,000 feet AGL
Clouds: few clouds at 11000 feet AGL
scattered clouds at 20000 feet AGL
Weather: no significant weather observed at this time

METAR text: KAFF 291621Z VRB03KT 10SM FEW130 SCT200 22/13 A3033 RMK AO2A
Conditions at: KAFF (USAF ACADEMY/COS, CO, US) observed 1621 UTC 29 July 2014
Temperature: 22.0°C (72°F)
Dewpoint: 13.0°C (55°F) [RH = 57%]
Pressure (altimeter): 30.33 inches Hg (1027.2 mb)
Winds: variable direction winds at 3 MPH (3 knots; 1.6 m/s)
Visibility: 10 or more miles (16+ km)
Ceiling: at least 12,000 feet AGL
Clouds: few clouds at 13000 feet AGL
scattered clouds at 20000 feet AGL
Weather: no significant weather observed at this time

METAR text: KAFF 291558Z COR AUTO 00000KT 10SM SCT130 21/13 A3033 RMK AO2 SLP187 T02130126 COR 1602
Conditions at: KAFF (USAF ACADEMY/COS, CO, US) observed 1558 UTC 29 July 2014
Temperature: 21.3°C (70°F)
Dewpoint: 12.6°C (55°F) [RH = 58%]
Pressure (altimeter): 30.33 inches Hg (1027.2 mb[Sea-level pressure: 1018.7 mb]
Winds: calm
Visibility: 10 or more miles (16+ km)
Ceiling: at least 12,000 feet AGL
Clouds: scattered clouds at 13000 feet AGL
Weather: automated observation with no human augmentation;
there may or may not be significant weather present at this time

METAR text: KAFF 291458Z AUTO 00000KT 10SM CLR 19/14 A3034 RMK AO2 SLP195 T01850137 53003
Conditions at: KAFF (USAF ACADEMY/COS, CO, US) observed 1458 UTC 29 July 2014
Temperature: 18.5°C (65°F)
Dewpoint: 13.7°C (57°F) [RH = 74%]
Pressure (altimeter): 30.34 inches Hg (1027.5 mb[Sea-level pressure: 1019.5 mb]
Winds: calm
Visibility: 10 or more miles (16+ km)
Ceiling: at least 12,000 feet AGL
Clouds: sky clear below 12,000 feet AGL
Weather: automated observation with no human augmentation;
there may or may not be significant weather present at this time

METAR text: KAFF 291358Z AUTO 00000KT 10SM FEW170 16/13 A3034 RMK AO2 SLP201 T01610127
Conditions at: KAFF (USAF ACADEMY/COS, CO, US) observed 1358 UTC 29 July 2014
Temperature: 16.1°C (61°F)
Dewpoint: 12.7°C (55°F) [RH = 80%]
Pressure (altimeter): 30.34 inches Hg (1027.5 mb[Sea-level pressure: 1020.1 mb]
Winds: calm
Visibility: 10 or more miles (16+ km)
Ceiling: at least 12,000 feet AGL
Clouds: few clouds at 17000 feet AGL
Weather: automated observation with no human augmentation;
there may or may not be significant weather present at this time

METAR text: KAFF 291258Z AUTO 01007KT 10SM CLR 13/12 A3033 RMK AO2 SLP202 T01270119
Conditions at: KAFF (USAF ACADEMY/COS, CO, US) observed 1258 UTC 29 July 2014
Temperature: 12.7°C (55°F)
Dewpoint: 11.9°C (53°F) [RH = 95%]
Pressure (altimeter): 30.33 inches Hg (1027.2 mb[Sea-level pressure: 1020.2 mb]
Winds: from the N (10 degrees) at 8 MPH (7 knots; 3.6 m/s)
Visibility: 10 or more miles (16+ km)
Ceiling: at least 12,000 feet AGL
Clouds: sky clear below 12,000 feet AGL
Weather: automated observation with no human augmentation;
there may or may not be significant weather present at this time

METAR text: KAFF 291158Z AUTO 01005KT 10SM CLR 11/11 A3033 RMK AO2 SLP202 T01110109 10150 20108 55004
Conditions at: KAFF (USAF ACADEMY/COS, CO, US) observed 1158 UTC 29 July 2014
Temperature: 11.1°C (52°F)
Dewpoint: 10.9°C (52°F) [RH = 99%]
Pressure (altimeter): 30.33 inches Hg (1027.2 mb[Sea-level pressure: 1020.2 mb]
Winds: from the N (10 degrees) at 6 MPH (5 knots; 2.6 m/s)
Visibility: 10 or more miles (16+ km)
Ceiling: at least 12,000 feet AGL
Clouds: sky clear below 12,000 feet AGL
Weather: automated observation with no human augmentation;
there may or may not be significant weather present at this time

METAR text: KAFF 291058Z AUTO 35004KT 10SM CLR 11/10 A3032 RMK AO2 SLPNO T01120104
Conditions at: KAFF (USAF ACADEMY/COS, CO, US) observed 1058 UTC 29 July 2014
Temperature: 11.2°C (52°F)
Dewpoint: 10.4°C (51°F) [RH = 95%]
Pressure (altimeter): 30.32 inches Hg (1026.8 mb)
Winds: from the N (350 degrees) at 5 MPH (4 knots; 2.1 m/s)
Visibility: 10 or more miles (16+ km)
Ceiling: at least 12,000 feet AGL
Clouds: sky clear below 12,000 feet AGL
Weather: automated observation with no human augmentation;
there may or may not be significant weather present at this time

METAR text: KAFF 290958Z AUTO 36005KT 10SM CLR 12/11 A3033 RMK AO2 SLPNO T01160111
Conditions at: KAFF (USAF ACADEMY/COS, CO, US) observed 0958 UTC 29 July 2014
Temperature: 11.6°C (53°F)
Dewpoint: 11.1°C (52°F) [RH = 97%]
Pressure (altimeter): 30.33 inches Hg (1027.2 mb)
Winds: from the N (360 degrees) at 6 MPH (5 knots; 2.6 m/s)
Visibility: 10 or more miles (16+ km)
Ceiling: at least 12,000 feet AGL
Clouds: sky clear below 12,000 feet AGL
Weather: automated observation with no human augmentation;
there may or may not be significant weather present at this time

METAR text: KAFF 290858Z AUTO 35004KT 10SM CLR 13/12 A3034 RMK AO2 SLP201 T01260121 57009
Conditions at: KAFF (USAF ACADEMY/COS, CO, US) observed 0858 UTC 29 July 2014
Temperature: 12.6°C (55°F)
Dewpoint: 12.1°C (54°F) [RH = 97%]
Pressure (altimeter): 30.34 inches Hg (1027.5 mb[Sea-level pressure: 1020.1 mb]
Winds: from the N (350 degrees) at 5 MPH (4 knots; 2.1 m/s)
Visibility: 10 or more miles (16+ km)
Ceiling: at least 12,000 feet AGL
Clouds: sky clear below 12,000 feet AGL
Weather: automated observation with no human augmentation;
there may or may not be significant weather present at this time

METAR text: KAFF 290758Z AUTO VRB01KT 10SM CLR 14/13 A3035 RMK AO2 SLP204 T01370128
Conditions at: KAFF (USAF ACADEMY/COS, CO, US) observed 0758 UTC 29 July 2014
Temperature: 13.7°C (57°F)
Dewpoint: 12.8°C (55°F) [RH = 94%]
Pressure (altimeter): 30.35 inches Hg (1027.9 mb[Sea-level pressure: 1020.4 mb]
Winds: variable direction winds at 1 MPH (1 knots; 0.5 m/s)
Visibility: 10 or more miles (16+ km)
Ceiling: at least 12,000 feet AGL
Clouds: sky clear below 12,000 feet AGL
Weather: automated observation with no human augmentation;
there may or may not be significant weather present at this time

METAR text: KAFF 290658Z AUTO 00000KT 10SM CLR 15/14 A3037 RMK AO2 SLPNO T01480140 402150116
Conditions at: KAFF (USAF ACADEMY/COS, CO, US) observed 0658 UTC 29 July 2014
Temperature: 14.8°C (59°F)
Dewpoint: 14.0°C (57°F) [RH = 95%]
Pressure (altimeter): 30.37 inches Hg (1028.5 mb)
Winds: calm
Visibility: 10 or more miles (16+ km)
Ceiling: at least 12,000 feet AGL
Clouds: sky clear below 12,000 feet AGL
Weather: automated observation with no human augmentation;
there may or may not be significant weather present at this time

METAR text: KAFF 290558Z AUTO 02004KT 10SM CLR 15/14 A3038 RMK AO2 SLPNO 60000 T01460144 10196 20146 58005
Conditions at: KAFF (USAF ACADEMY/COS, CO, US) observed 0558 UTC 29 July 2014
Temperature: 14.6°C (58°F)
Dewpoint: 14.4°C (58°F) [RH = 99%]
Pressure (altimeter): 30.38 inches Hg (1028.9 mb)
Winds: from the NNE (20 degrees) at 5 MPH (4 knots; 2.1 m/s)
Visibility: 10 or more miles (16+ km)
Ceiling: at least 12,000 feet AGL
Clouds: sky clear below 12,000 feet AGL
Weather: automated observation with no human augmentation;
there may or may not be significant weather present at this time

METAR text: KAFF 290458Z AUTO 35005KT 10SM SCT120 16/15 A3039 RMK AO2 SLPNO T01600153
Conditions at: KAFF (USAF ACADEMY/COS, CO, US) observed 0458 UTC 29 July 2014
Temperature: 16.0°C (61°F)
Dewpoint: 15.3°C (60°F) [RH = 96%]
Pressure (altimeter): 30.39 inches Hg (1029.2 mb)
Winds: from the N (350 degrees) at 6 MPH (5 knots; 2.6 m/s)
Visibility: 10 or more miles (16+ km)
Ceiling: at least 12,000 feet AGL
Clouds: scattered clouds at 12000 feet AGL
Weather: automated observation with no human augmentation;
there may or may not be significant weather present at this time

METAR text: KAFF 290358Z AUTO 35003KT 10SM CLR 17/15 A3040 RMK AO2 SLP222 T01680150
Conditions at: KAFF (USAF ACADEMY/COS, CO, US) observed 0358 UTC 29 July 2014
Temperature: 16.8°C (62°F)
Dewpoint: 15.0°C (59°F) [RH = 89%]
Pressure (altimeter): 30.40 inches Hg (1029.5 mb[Sea-level pressure: 1022.2 mb]
Winds: from the N (350 degrees) at 3 MPH (3 knots; 1.6 m/s)
Visibility: 10 or more miles (16+ km)
Ceiling: at least 12,000 feet AGL
Clouds: sky clear below 12,000 feet AGL
Weather: automated observation with no human augmentation;
there may or may not be significant weather present at this time

METAR text: KAFF 290258Z AUTO 17003KT 10SM FEW020 18/15 A3039 RMK AO2 SLP218 60000 T01770151 53001
Conditions at: KAFF (USAF ACADEMY/COS, CO, US) observed 0258 UTC 29 July 2014
Temperature: 17.7°C (64°F)
Dewpoint: 15.1°C (59°F) [RH = 85%]
Pressure (altimeter): 30.39 inches Hg (1029.2 mb[Sea-level pressure: 1021.8 mb]
Winds: from the S (170 degrees) at 3 MPH (3 knots; 1.6 m/s)
Visibility: 10 or more miles (16+ km)
Ceiling: at least 12,000 feet AGL
Clouds: few clouds at 2000 feet AGL
Weather: automated observation with no human augmentation;
there may or may not be significant weather present at this time

METAR text: KAFF 290158Z AUTO 15007KT 10SM FEW020 19/15 A3038 RMK AO2 SLP215 T01850150
Conditions at: KAFF (USAF ACADEMY/COS, CO, US) observed 0158 UTC 29 July 2014
Temperature: 18.5°C (65°F)
Dewpoint: 15.0°C (59°F) [RH = 80%]
Pressure (altimeter): 30.38 inches Hg (1028.9 mb[Sea-level pressure: 1021.5 mb]
Winds: from the SSE (150 degrees) at 8 MPH (7 knots; 3.6 m/s)
Visibility: 10 or more miles (16+ km)
Ceiling: at least 12,000 feet AGL
Clouds: few clouds at 2000 feet AGL
Weather: automated observation with no human augmentation;
there may or may not be significant weather present at this time

METAR text: KAFF 290108Z AUTO 16007KT 10SM SCT020 19/15 A3037 RMK AO2
Conditions at: KAFF (USAF ACADEMY/COS, CO, US) observed 0108 UTC 29 July 2014
Temperature: 19.0°C (66°F)
Dewpoint: 15.0°C (59°F) [RH = 78%]
Pressure (altimeter): 30.37 inches Hg (1028.5 mb)
Winds: from the SSE (160 degrees) at 8 MPH (7 knots; 3.6 m/s)
Visibility: 10 or more miles (16+ km)
Ceiling: at least 12,000 feet AGL
Clouds: scattered clouds at 2000 feet AGL
Weather: automated observation with no human augmentation;
there may or may not be significant weather present at this time

METAR text: KAFF 290058Z AUTO 17007KT 10SM BKN021 BKN026 19/15 A3038 RMK AO2 DZB0008E0019 SLP220 P0000 T01930154
Conditions at: KAFF (USAF ACADEMY/COS, CO, US) observed 0058 UTC 29 July 2014
Temperature: 19.3°C (67°F)
Dewpoint: 15.4°C (60°F) [RH = 78%]
Pressure (altimeter): 30.38 inches Hg (1028.9 mb[Sea-level pressure: 1022.0 mb]
Winds: from the S (170 degrees) at 8 MPH (7 knots; 3.6 m/s)
Visibility: 10 or more miles (16+ km)
Ceiling: 2100 feet AGL
Clouds: broken clouds at 2100 feet AGL
broken clouds at 2600 feet AGL
Weather: automated observation with no human augmentation;
there may or may not be significant weather present at this time

METAR text: KAFF 290039Z AUTO 22003KT 10SM BKN020 19/15 A3038 RMK AO2 BKN V SCT
Conditions at: KAFF (USAF ACADEMY/COS, CO, US) observed 0039 UTC 29 July 2014
Temperature: 19.0°C (66°F)
Dewpoint: 15.0°C (59°F) [RH = 78%]
Pressure (altimeter): 30.38 inches Hg (1028.9 mb)
Winds: from the SW (220 degrees) at 3 MPH (3 knots; 1.6 m/s)
Visibility: 10 or more miles (16+ km)
Ceiling: 2000 feet AGL
Clouds: broken clouds at 2000 feet AGL
Weather: automated observation with no human augmentation;
there may or may not be significant weather present at this time

METAR text: KAFF 290019Z AUTO 22005KT 10SM FEW022 20/16 A3038 RMK AO2
Conditions at: KAFF (USAF ACADEMY/COS, CO, US) observed 0019 UTC 29 July 2014
Temperature: 20.0°C (68°F)
Dewpoint: 16.0°C (61°F) [RH = 78%]
Pressure (altimeter): 30.38 inches Hg (1028.9 mb)
Winds: from the SW (220 degrees) at 6 MPH (5 knots; 2.6 m/s)
Visibility: 10 or more miles (16+ km)
Ceiling: at least 12,000 feet AGL
Clouds: few clouds at 2200 feet AGL
Weather: automated observation with no human augmentation;
there may or may not be significant weather present at this time

METAR text: KAFF 290015Z AUTO 22005KT 10SM -DZ FEW022 20/15 A3038 RMK AO2
Conditions at: KAFF (USAF ACADEMY/COS, CO, US) observed 0015 UTC 29 July 2014
Temperature: 20.0°C (68°F)
Dewpoint: 15.0°C (59°F) [RH = 73%]
Pressure (altimeter): 30.38 inches Hg (1028.9 mb)
Winds: from the SW (220 degrees) at 6 MPH (5 knots; 2.6 m/s)
Visibility: 10 or more miles (16+ km)
Ceiling: at least 12,000 feet AGL
Clouds: few clouds at 2200 feet AGL
Weather: -DZ  (light drizzle)

METAR text: KAFF 282358Z AUTO 19004KT 10SM CLR 20/15 A3039 RMK AO2 SLP223 T01950154 10215 20189 57008
Conditions at: KAFF (USAF ACADEMY/COS, CO, US) observed 2358 UTC 28 July 2014
Temperature: 19.5°C (67°F)
Dewpoint: 15.4°C (60°F) [RH = 77%]
Pressure (altimeter): 30.39 inches Hg (1029.2 mb[Sea-level pressure: 1022.3 mb]
Winds: from the S (190 degrees) at 5 MPH (4 knots; 2.1 m/s)
Visibility: 10 or more miles (16+ km)
Ceiling: at least 12,000 feet AGL
Clouds: sky clear below 12,000 feet AGL
Weather: automated observation with no human augmentation;
there may or may not be significant weather present at this time